Time;durP1;ratioP1;P1;durP2;ratioP2;P2;SDS_P1;SDS_P2;PMS_P1;PMS_P2;Temp;Humidity;BMP_temperature;BMP_pressure;BME280_temperature;BME280_humidity;BME280_pressure;Samples;Min_cycle;Max_cycle;Signal;HPM_P1;HPM_P2
2021/10/08 00:01:01;;;;;;;54.60;26.67;;;;;;;;;;5014872;28;20025;-62
2021/10/08 00:03:27;;;;;;;43.28;23.42;;;;;;;;;;5013717;28;20687;-60
2021/10/08 00:05:53;;;;;;;47.88;25.75;;;;;;;;;;5013766;28;20034;-61
2021/10/08 00:08:19;;;;;;;47.70;25.60;;;;;;;;;;5014889;28;20032;-61
2021/10/08 00:10:45;;;;;;;44.45;24.40;;;;;;;;;;5014616;28;20445;-60
2021/10/08 00:13:11;;;;;;;46.05;23.48;;;;;;;;;;5014647;28;20022;-62
2021/10/08 00:15:37;;;;;;;48.17;24.90;;;;;;;;;;5014826;28;20017;-62
2021/10/08 00:18:03;;;;;;;50.67;24.42;;;;;;;;;;5013514;28;20053;-62
2021/10/08 00:20:29;;;;;;;50.45;26.20;;;;;;;;;;5013343;28;20030;-62
2021/10/08 00:22:54;;;;;;;50.92;26.38;;;;;;;;;;5014582;28;20061;-55
2021/10/08 00:25:21;;;;;;;50.15;25.38;;;;;;;;;;5014622;28;20041;-61
2021/10/08 00:27:46;;;;;;;48.47;24.52;;;;;;;;;;5013246;28;20068;-62
2021/10/08 00:30:12;;;;;;;45.97;23.13;;;;;;;;;;5014279;28;20057;-61
2021/10/08 00:32:38;;;;;;;46.13;22.80;;;;;;;;;;5014586;28;20537;-62
2021/10/08 00:35:05;;;;;;;43.15;23.23;;;;;;;;;;5014565;28;20109;-61
2021/10/08 00:37:31;;;;;;;40.75;22.23;;;;;;;;;;5014497;28;20040;-62
2021/10/08 00:39:57;;;;;;;39.15;22.08;;;;;;;;;;5014206;28;20485;-63
2021/10/08 00:42:26;;;;;;;41.25;22.88;;;;;;;;;;5013047;28;20029;-62
2021/10/08 00:44:52;;;;;;;40.83;21.48;;;;;;;;;;5012895;28;20060;-62
2021/10/08 00:49:48;;;;;;;41.13;21.00;;;;;;;;;;5070482;28;20468;-66
2021/10/08 00:52:14;;;;;;;42.05;22.17;;;;;;;;;;5073163;28;20400;-65
2021/10/08 00:54:40;;;;;;;43.97;23.10;;;;;;;;;;5071741;28;20127;-66
2021/10/08 00:57:06;;;;;;;40.92;21.73;;;;;;;;;;5072866;28;20016;-67
2021/10/08 00:59:32;;;;;;;42.80;23.50;;;;;;;;;;5071997;28;20089;-67
2021/10/08 01:01:58;;;;;;;44.95;21.35;;;;;;;;;;5072565;28;20036;-66
2021/10/08 01:04:25;;;;;;;41.10;21.00;;;;;;;;;;5072893;28;20028;-66
2021/10/08 01:06:51;;;;;;;39.50;21.45;;;;;;;;;;5071557;28;20047;-66
2021/10/08 01:09:17;;;;;;;41.58;22.15;;;;;;;;;;5072838;28;20468;-65
2021/10/08 01:11:44;;;;;;;37.75;20.60;;;;;;;;;;5071095;28;20031;-66
2021/10/08 01:14:11;;;;;;;38.10;19.67;;;;;;;;;;5072873;28;20020;-65
2021/10/08 01:16:37;;;;;;;38.50;20.27;;;;;;;;;;5072659;28;20127;-65
2021/10/08 01:19:03;;;;;;;39.55;20.85;;;;;;;;;;5071257;28;20055;-68
2021/10/08 01:21:29;;;;;;;39.80;20.10;;;;;;;;;;5071064;28;20024;-68
2021/10/08 01:23:55;;;;;;;40.10;20.77;;;;;;;;;;5072615;28;20107;-68
2021/10/08 01:26:21;;;;;;;40.55;21.38;;;;;;;;;;5071043;28;20116;-69
2021/10/08 01:28:47;;;;;;;38.63;20.10;;;;;;;;;;5070930;28;20021;-67
2021/10/08 01:31:13;;;;;;;36.70;20.88;;;;;;;;;;5070724;28;20082;-67
2021/10/08 01:33:39;;;;;;;33.05;19.08;;;;;;;;;;5070986;28;20016;-69
2021/10/08 01:36:05;;;;;;;34.58;19.42;;;;;;;;;;5070808;28;20388;-70
2021/10/08 01:38:31;;;;;;;37.15;18.33;;;;;;;;;;5072218;28;20032;-66
2021/10/08 01:40:57;;;;;;;39.00;20.27;;;;;;;;;;5072136;28;20056;-66
2021/10/08 01:43:23;;;;;;;37.70;19.15;;;;;;;;;;5070753;28;20458;-66
2021/10/08 01:45:49;;;;;;;153.05;104.85;;;;;;;;;;5072313;28;20026;-66
2021/10/08 01:48:15;;;;;;;88.20;57.40;;;;;;;;;;5070683;28;20033;-65
2021/10/08 01:50:41;;;;;;;60.58;35.63;;;;;;;;;;5070631;28;20020;-69
2021/10/08 01:53:09;;;;;;;102.60;69.45;;;;;;;;;;5071938;28;20048;-66
2021/10/08 01:55:35;;;;;;;36.22;21.95;;;;;;;;;;5072351;28;20094;-66
2021/10/08 01:58:01;;;;;;;34.58;17.98;;;;;;;;;;5071635;28;20031;-65
2021/10/08 02:00:27;;;;;;;32.20;16.88;;;;;;;;;;5071913;28;20029;-65
2021/10/08 02:02:53;;;;;;;33.35;16.95;;;;;;;;;;5070715;28;20024;-65
2021/10/08 02:05:22;;;;;;;31.65;17.73;;;;;;;;;;5070491;28;20020;-65
2021/10/08 02:07:48;;;;;;;32.40;17.40;;;;;;;;;;5070280;28;20024;-64
2021/10/08 02:10:15;;;;;;;33.38;17.77;;;;;;;;;;5069943;28;20024;-64
2021/10/08 02:12:41;;;;;;;33.15;17.63;;;;;;;;;;5069422;28;20111;-64
2021/10/08 02:15:07;;;;;;;32.88;16.88;;;;;;;;;;5071562;28;20463;-65
2021/10/08 02:17:33;;;;;;;33.00;16.40;;;;;;;;;;5071328;28;20021;-66
2021/10/08 02:19:59;;;;;;;33.80;17.02;;;;;;;;;;5071262;28;20029;-64
2021/10/08 02:22:25;;;;;;;33.35;17.55;;;;;;;;;;5071589;28;20028;-66
2021/10/08 02:24:51;;;;;;;33.80;17.90;;;;;;;;;;5070093;28;20033;-65
2021/10/08 02:27:16;;;;;;;31.58;17.10;;;;;;;;;;5071367;28;20077;-67
2021/10/08 02:29:42;;;;;;;36.65;16.95;;;;;;;;;;5071087;28;20035;-66
2021/10/08 02:32:08;;;;;;;35.13;17.92;;;;;;;;;;5070106;28;20491;-67
2021/10/08 02:34:34;;;;;;;35.10;17.10;;;;;;;;;;5069931;28;20028;-67
2021/10/08 02:37:01;;;;;;;33.95;16.38;;;;;;;;;;5069934;28;20032;-67
2021/10/08 02:39:27;;;;;;;33.10;16.98;;;;;;;;;;5069649;28;20025;-66
2021/10/08 02:41:56;;;;;;;32.65;16.92;;;;;;;;;;5071035;28;20028;-67
2021/10/08 02:44:22;;;;;;;33.75;16.98;;;;;;;;;;5071079;28;20035;-67
2021/10/08 02:46:48;;;;;;;35.35;16.98;;;;;;;;;;5071018;28;20028;-65
2021/10/08 02:49:21;;;;;;;33.72;18.13;;;;;;;;;;5070786;28;20028;-66
2021/10/08 02:51:47;;;;;;;33.42;17.30;;;;;;;;;;5070757;28;20074;-66
2021/10/08 02:54:13;;;;;;;29.48;15.60;;;;;;;;;;5069789;28;20438;-64
2021/10/08 02:56:39;;;;;;;31.20;16.98;;;;;;;;;;5069774;28;20043;-67
2021/10/08 02:59:04;;;;;;;34.38;16.80;;;;;;;;;;5071063;28;20032;-68
2021/10/08 03:01:31;;;;;;;34.15;17.45;;;;;;;;;;5070931;28;20499;-67
2021/10/08 03:03:58;;;;;;;33.15;16.73;;;;;;;;;;5071151;28;20542;-66
2021/10/08 03:06:24;;;;;;;36.92;17.85;;;;;;;;;;5071004;28;20084;-66
2021/10/08 03:08:53;;;;;;;33.72;18.13;;;;;;;;;;5071097;28;20052;-66
2021/10/08 03:11:19;;;;;;;34.22;17.55;;;;;;;;;;5070715;28;20025;-66
2021/10/08 03:13:45;;;;;;;32.70;16.40;;;;;;;;;;5069910;28;20613;-66
2021/10/08 03:16:11;;;;;;;32.92;17.75;;;;;;;;;;5071155;28;20118;-65
2021/10/08 03:18:37;;;;;;;36.83;19.60;;;;;;;;;;5069759;28;20059;-66
2021/10/08 03:21:03;;;;;;;32.55;17.58;;;;;;;;;;5070525;28;20029;-64
2021/10/08 03:23:29;;;;;;;35.28;18.38;;;;;;;;;;5071218;28;20052;-65
2021/10/08 03:25:55;;;;;;;40.50;18.48;;;;;;;;;;5074684;28;20056;-64
2021/10/08 03:28:21;;;;;;;33.30;17.48;;;;;;;;;;5074518;28;20048;-64
2021/10/08 03:30:47;;;;;;;34.85;16.65;;;;;;;;;;5073345;28;20040;-67
2021/10/08 03:33:13;;;;;;;32.58;18.05;;;;;;;;;;5074061;28;20056;-66
2021/10/08 03:35:42;;;;;;;35.15;17.48;;;;;;;;;;5073083;28;20020;-66
2021/10/08 03:38:12;;;;;;;;;;;;;;;;;;5074845;28;20048;-68
2021/10/08 03:40:40;;;;;;;32.80;18.08;;;;;;;;;;5072710;28;20054;-66
2021/10/08 03:43:06;;;;;;;38.22;19.15;;;;;;;;;;5073050;28;20087;-65
2021/10/08 03:45:44;;;;;;;37.78;19.60;;;;;;;;;;5074130;28;20021;-66
2021/10/08 03:50:56;;;;;;;36.90;18.13;;;;;;;;;;5074141;28;20399;-66
2021/10/08 03:53:22;;;;;;;34.53;18.40;;;;;;;;;;5074009;28;20103;-66
2021/10/08 03:55:48;;;;;;;31.42;17.23;;;;;;;;;;5072427;28;20025;-66
2021/10/08 03:58:13;;;;;;;33.67;17.88;;;;;;;;;;5072697;28;20021;-66
2021/10/08 04:00:39;;;;;;;35.47;17.40;;;;;;;;;;5073662;28;20399;-66
2021/10/08 04:03:05;;;;;;;32.88;17.63;;;;;;;;;;5073902;28;20025;-66
2021/10/08 04:05:31;;;;;;;38.38;17.55;;;;;;;;;;5072769;28;20499;-67
2021/10/08 04:07:57;;;;;;;39.13;19.35;;;;;;;;;;5072508;28;20028;-67
2021/10/08 04:10:23;;;;;;;36.45;17.60;;;;;;;;;;5073353;28;20024;-68
2021/10/08 04:12:49;;;;;;;37.13;18.88;;;;;;;;;;5073881;28;20066;-68
2021/10/08 04:15:15;;;;;;;37.42;18.95;;;;;;;;;;5073741;28;20101;-66
2021/10/08 04:17:41;;;;;;;33.80;18.48;;;;;;;;;;5072024;28;20021;-64
2021/10/08 04:20:07;;;;;;;38.20;20.92;;;;;;;;;;5073413;28;20020;-66
2021/10/08 04:22:34;;;;;;;40.28;19.88;;;;;;;;;;5073452;28;20032;-65
2021/10/08 04:24:59;;;;;;;38.47;19.85;;;;;;;;;;5072216;28;20116;-66
2021/10/08 04:27:25;;;;;;;41.10;19.98;;;;;;;;;;5072073;28;20060;-67
2021/10/08 04:29:51;;;;;;;43.65;20.63;;;;;;;;;;5071827;28;20070;-66
2021/10/08 04:32:17;;;;;;;39.33;20.92;;;;;;;;;;5072137;28;20063;-67
2021/10/08 04:34:43;;;;;;;42.25;21.35;;;;;;;;;;5070983;28;20052;-67
2021/10/08 04:37:09;;;;;;;38.25;21.52;;;;;;;;;;5071953;28;20020;-66
2021/10/08 04:39:35;;;;;;;39.25;19.70;;;;;;;;;;5072912;28;20494;-67
2021/10/08 04:42:01;;;;;;;36.95;20.15;;;;;;;;;;5073033;28;20069;-67
2021/10/08 04:44:29;;;;;;;40.80;21.17;;;;;;;;;;5073110;28;20028;-67
2021/10/08 04:46:55;;;;;;;44.10;21.60;;;;;;;;;;5071980;28;20025;-69
2021/10/08 04:49:21;;;;;;;39.33;20.98;;;;;;;;;;5073201;28;20035;-66
2021/10/08 04:51:47;;;;;;;40.85;21.70;;;;;;;;;;5071447;28;20460;-69
2021/10/08 04:54:13;;;;;;;42.28;22.40;;;;;;;;;;5073041;28;20066;-68
2021/10/08 04:56:39;;;;;;;46.63;22.95;;;;;;;;;;5071504;28;20484;-68
2021/10/08 04:59:05;;;;;;;39.50;20.75;;;;;;;;;;5071377;28;20048;-68
2021/10/08 05:01:31;;;;;;;39.70;21.23;;;;;;;;;;5072737;28;20044;-66
2021/10/08 05:03:57;;;;;;;39.50;20.92;;;;;;;;;;5071452;28;20114;-67
2021/10/08 05:06:23;;;;;;;35.88;19.35;;;;;;;;;;5072688;28;20400;-67
2021/10/08 05:08:49;;;;;;;39.83;20.23;;;;;;;;;;5072413;28;20016;-68
2021/10/08 05:11:16;;;;;;;38.08;19.75;;;;;;;;;;5071965;28;20023;-66
2021/10/08 05:13:42;;;;;;;38.78;22.60;;;;;;;;;;5071255;28;20021;-67
2021/10/08 05:16:08;;;;;;;35.92;21.50;;;;;;;;;;5070931;28;20077;-67
2021/10/08 05:18:34;;;;;;;44.50;23.65;;;;;;;;;;5071005;28;20016;-67
2021/10/08 05:21:00;;;;;;;39.17;21.75;;;;;;;;;;5072240;28;20131;-66
2021/10/08 05:23:26;;;;;;;38.83;21.23;;;;;;;;;;5072157;28;20365;-67
2021/10/08 05:25:51;;;;;;;36.47;20.27;;;18.70;99.90;;;;;;5071900;28;20032;-67
2021/10/08 05:28:17;;;;;;;45.15;22.63;;;7.70;99.90;;;;;;5071841;28;20060;-68
2021/10/08 05:30:42;;;;;;;39.75;22.05;;;7.20;99.90;;;;;;5071757;28;20029;-68
2021/10/08 05:33:08;;;;;;;39.65;21.02;;;;;;;;;;5070746;28;20023;-68
2021/10/08 05:35:34;;;;;;;39.58;21.13;;;;;;;;;;5071929;28;20065;-67
2021/10/08 05:38:00;;;;;;;37.80;21.08;;;;;;;;;;5070434;28;20361;-68
2021/10/08 05:40:26;;;;;;;36.13;19.77;;;;;;;;;;5070703;28;20027;-67
2021/10/08 05:42:53;;;;;;;38.17;20.45;;;;;;;;;;5071692;28;20032;-69
2021/10/08 05:45:19;;;;;;;37.95;20.02;;;;;;;;;;5070443;28;20198;-67
2021/10/08 05:47:45;;;;;;;40.70;20.05;;;;;;;;;;5071387;28;20041;-67
2021/10/08 05:50:11;;;;;;;37.38;19.92;;;;;;;;;;5070045;28;20115;-68
2021/10/08 05:52:37;;;;;;;37.60;20.98;;;;;;;;;;5071520;28;20097;-68
2021/10/08 05:55:03;;;;;;;35.28;19.50;;;;;;;;;;5070288;28;20028;-69
2021/10/08 05:57:29;;;;;;;37.08;20.80;;;;;;;;;;5071583;28;20020;-67
2021/10/08 05:59:55;;;;;;;36.13;19.38;;;;;;;;;;5070733;28;20029;-67
2021/10/08 06:02:21;;;;;;;41.85;20.90;;;;;;;;;;5071341;28;20033;-67
2021/10/08 06:04:47;;;;;;;39.45;20.90;;;;;;;;;;5071168;28;20082;-67
2021/10/08 06:07:13;;;;;;;55.97;21.67;;;;;;;;;;5071017;28;20021;-68
2021/10/08 06:09:44;;;;;;;38.25;20.65;;;;;;;;;;5070638;28;20456;-68
2021/10/08 06:12:10;;;;;;;39.90;21.10;;;;;;;;;;5070735;28;20064;-67
2021/10/08 06:14:36;;;;;;;39.08;20.30;;;;;;;;;;5069698;28;20059;-68
2021/10/08 06:17:02;;;;;;;39.40;22.05;;;;;;;;;;5069082;28;20143;-67
2021/10/08 06:19:28;;;;;;;39.58;21.30;;;;;;;;;;5070691;28;20033;-65
2021/10/08 06:21:54;;;;;;;41.33;23.33;;;;;;;;;;5070785;28;20484;-66
2021/10/08 06:24:20;;;;;;;36.15;19.83;;;;;;;;;;5070973;28;20028;-66
2021/10/08 06:26:45;;;;;;;39.30;22.00;;;;;;;;;;5070756;28;20067;-66
2021/10/08 06:29:11;;;;;;;40.47;22.20;;;;;;;;;;5069281;28;20036;-65
2021/10/08 06:31:37;;;;;;;41.50;21.70;;;;;;;;;;5070478;28;20021;-65
2021/10/08 06:34:03;;;;;;;47.05;23.58;;;;;;;;;;5070855;28;20098;-66
2021/10/08 06:36:29;;;;;;;48.80;26.20;;;;;;;;;;5069557;28;20016;-66
2021/10/08 06:38:55;;;;;;;39.70;22.70;;;;;;;;;;5069823;28;20115;-66
2021/10/08 06:41:21;;;;;;;41.20;22.05;;;;;;;;;;5069379;28;20135;-67
2021/10/08 06:43:47;;;;;;;39.40;22.08;;;;;;;;;;5069946;28;20506;-66
2021/10/08 06:46:13;;;;;;;41.08;23.50;;;;;;;;;;5069806;28;20020;-66
2021/10/08 06:48:39;;;;;;;38.95;22.67;;;;;;;;;;5070078;28;20426;-65
2021/10/08 06:51:05;;;;;;;39.28;22.20;;;;;;;;;;5068934;28;20028;-66
2021/10/08 06:53:32;;;;;;;38.88;22.88;;;;;;;;;;5070538;28;20503;-66
2021/10/08 06:55:59;;;;;;;42.75;22.75;;;;;;;;;;5070691;28;20029;-66
2021/10/08 06:58:25;;;;;;;40.75;21.63;;;;;;;;;;5070683;28;20123;-66
2021/10/08 07:00:53;;;;;;;40.92;23.48;;;;;;;;;;5074815;28;20059;-66
2021/10/08 07:03:20;;;;;;;40.72;21.83;;;;;;;;;;5075755;28;20025;-67
2021/10/08 07:05:46;;;;;;;38.40;21.95;;;;;;;;;;5088499;22;20146;-60
2021/10/08 07:08:12;;;;;;;41.97;21.40;;;;;;;;;;5075156;28;20387;-55
2021/10/08 07:10:39;;;;;;;40.95;21.27;;;;;;;;;;5074458;28;20021;-60
2021/10/08 07:13:05;;;;;;;37.03;20.42;;;;;;;;;;5075347;28;20021;-57
2021/10/08 07:15:31;;;;;;;36.42;19.58;;;;;;;;;;5073744;28;20027;-59
2021/10/08 07:17:58;;;;;;;46.22;25.00;;;;;;;;;;5073871;28;20115;-57
2021/10/08 07:20:25;;;;;;;38.35;21.83;;;;;;;;;;5074522;28;20012;-55
2021/10/08 07:22:52;;;;;;;39.45;21.20;;;;;;;;;;5075045;28;20330;-60
2021/10/08 07:25:18;;;;;;;34.65;18.98;;;;;;;;;;5073781;28;20450;-58
2021/10/08 07:27:46;;;;;;;36.78;19.52;;;;;;;;;;5075032;28;20086;-55
2021/10/08 07:30:12;;;;;;;36.03;19.47;;;;;;;;;;5074941;28;20476;-55
2021/10/08 07:32:39;;;;;;;34.17;18.85;;;;;;;;;;5075094;28;20726;-55
2021/10/08 07:35:05;;;;;;;36.38;20.77;;;;;;;;;;5075040;28;20090;-56
2021/10/08 07:37:31;;;;;;;37.20;19.98;;;;;;;;;;5073644;28;20043;-57
2021/10/08 07:39:57;;;;;;;35.60;20.63;;;;;;;;;;5074898;28;20032;-54
2021/10/08 07:42:24;;;;;;;36.95;19.55;;;;;;;;;;5073582;28;20395;-57
2021/10/08 07:44:50;;;;;;;34.70;19.33;;;;;;;;;;5074589;28;20039;-62
2021/10/08 07:47:16;;;;;;;46.92;20.70;;;;;;;;;;5073834;28;20028;-63
2021/10/08 07:49:43;;;;;;;35.38;19.65;;;;;;;;;;5073610;28;20051;-63
2021/10/08 07:52:09;;;;;;;35.63;21.25;;;;;;;;;;5074460;28;20016;-63
2021/10/08 07:54:35;;;;;;;38.50;19.05;;;;;;;;;;5074344;28;20047;-64
2021/10/08 07:57:01;;;;;;;36.08;19.23;;;;;;;;;;5074576;28;20473;-63
2021/10/08 07:59:27;;;;;;;37.65;23.98;;;;;;;;;;5074464;28;20032;-59
2021/10/08 08:01:53;;;;;;;37.65;20.20;;;;;;;;;;5074296;28;20032;-62
2021/10/08 08:04:19;;;;;;;33.10;16.67;;;;;;;;;;5074292;28;20392;-62
2021/10/08 08:06:45;;;;;;;30.50;17.85;;;;;;;;;;5072769;28;20080;-62
2021/10/08 08:09:11;;;;;;;34.20;18.08;;;;;;;;;;5072398;28;20029;-62
2021/10/08 08:11:37;;;;;;;32.13;18.00;;;;;;;;;;5074084;28;20093;-61
2021/10/08 08:14:03;;;;;;;36.15;17.48;;;;;;;;;;5074476;28;20444;-62
2021/10/08 08:16:29;;;;;;;39.47;19.00;;;;;;;;;;5074128;28;20047;-61
2021/10/08 08:18:55;;;;;;;32.17;17.92;;;;;;;;;;5072907;28;20484;-61
2021/10/08 08:21:22;;;;;;;35.75;17.10;;;;;;;;;;5075486;28;20024;-60
2021/10/08 08:23:48;;;;;;;31.05;17.13;;;;;;;;;;5074148;28;20392;-62
2021/10/08 08:26:14;;;;;;;28.70;16.17;;;;;;;;;;5073764;28;20028;-62
2021/10/08 08:28:40;;;;;;;28.48;15.88;;;;;;;;;;5074059;28;20021;-62
2021/10/08 08:31:06;;;;;;;39.22;17.70;;;;;;;;;;5074168;28;20310;-62
2021/10/08 08:33:35;;;;;;;29.52;15.50;;;;;;;;;;5074205;28;20036;-62
2021/10/08 08:36:01;;;;;;;37.80;18.00;;;;;;;;;;5074006;28;20119;-61
2021/10/08 08:38:27;;;;;;;31.00;16.95;;;;;;;;;;5072376;28;20476;-60
2021/10/08 08:40:53;;;;;;;26.30;14.35;;;;;;;;;;5073768;28;20021;-61
2021/10/08 08:43:19;;;;;;;27.92;14.98;;;;;;;;;;5072574;28;20020;-61
2021/10/08 08:45:45;;;;;;;27.33;14.15;;;;;;;;;;5073300;28;20036;-60
2021/10/08 08:48:12;;;;;;;26.23;14.80;;;;;;;;;;5073817;28;20039;-60
2021/10/08 08:50:40;;;;;;;29.88;14.02;;;;;;;;;;5072958;28;20017;-61
2021/10/08 08:53:06;;;;;;;28.10;13.88;;;;;;;;;;5073684;28;20365;-62
2021/10/08 08:55:33;;;;;;;29.08;14.07;;;;;;;;;;5073466;28;20020;-61
2021/10/08 08:57:59;;;;;;;24.70;14.20;;;;;;;;;;5071917;28;20039;-62
2021/10/08 09:00:25;;;;;;;27.30;14.43;;;;;;;;;;5072976;28;20028;-61
2021/10/08 09:02:55;;;;;;;29.90;13.57;;;;;;;;;;5074208;28;20032;-62
2021/10/08 09:05:31;;;;;;;24.15;12.73;;;;;;;;;;5072906;28;20100;-61
2021/10/08 09:07:59;;;;;;;29.83;14.40;;;;;;;;;;5072918;28;20024;-61
2021/10/08 09:10:26;;;;;;;28.30;12.85;;;;;;;;;;5071809;28;20054;-61
2021/10/08 09:12:56;;;;;;;23.17;12.30;;;;;;;;;;5073337;28;20122;-62
2021/10/08 09:15:24;;;;;;;22.08;12.57;;;;;;;;;;5073193;28;20017;-61
2021/10/08 09:17:50;;;;;;;45.45;16.20;;;;;;;;;;5071430;28;20369;-62
2021/10/08 09:20:17;;;;;;;26.08;12.60;;;;;;;;;;5072167;28;20028;-62
2021/10/08 09:22:46;;;;;;;26.95;13.98;;;;;;;;;;5072553;28;20024;-62
2021/10/08 09:25:15;;;;;;;28.98;13.27;;;;;;;;;;5071520;28;20028;-62
2021/10/08 09:27:42;;;;;;;26.83;12.77;;;;;;;;;;5073160;28;20487;-62
2021/10/08 09:30:08;;;;;;;25.80;12.88;;;;;;;;;;5072672;28;20021;-62
2021/10/08 09:32:40;;;;;;;23.83;12.93;;;;;;;;;;5072704;28;20021;-62
2021/10/08 09:35:07;;;;;;;23.52;12.55;;;;;;;;;;5071619;28;20476;-62
2021/10/08 09:37:34;;;;;;;23.92;12.60;;;;;;;;;;5072670;28;20079;-62
2021/10/08 09:40:00;;;;;;;21.65;11.70;;;;;;;;;;5072430;28;20032;-62
2021/10/08 09:42:35;;;;;;;24.15;12.25;;;;;;;;;;5072272;28;20024;-62
2021/10/08 09:45:03;;;;;;;27.55;13.07;;;;;;;;;;5072367;28;20484;-61
2021/10/08 09:47:29;;;;;;;20.35;10.90;;;7.10;99.90;;;;;;5071155;28;20456;-61
2021/10/08 09:50:11;;;;;;;22.00;12.30;;;;;;;;;;5071527;28;20107;-61
2021/10/08 09:52:38;;;;;;;22.25;12.35;;;;;;;;;;5072412;28;20027;-60
2021/10/08 09:55:05;;;;;;;31.17;14.98;;;;;;;;;;5071946;28;20016;-62
2021/10/08 09:57:51;;;;;;;25.00;14.47;;;;;;;;;;5071655;28;20405;-62
2021/10/08 10:00:43;;;;;;;25.52;14.80;;;14.60;99.90;;;;;;5070767;28;20025;-62
2021/10/08 10:03:13;;;;;;;22.70;14.27;;;15.10;99.90;;;;;;5065700;28;20040;-62
2021/10/08 10:05:39;;;;;;;20.33;13.07;;;15.10;99.90;;;;;;5072807;28;20182;-62
2021/10/08 10:08:05;;;;;;;22.38;14.15;;;15.20;99.90;;;;;;5071067;28;20056;-64
2021/10/08 10:10:32;;;;;;;22.17;13.95;;;15.30;99.90;;;;;;5071932;28;20423;-62
2021/10/08 10:12:59;;;;;;;22.20;14.43;;;15.40;99.90;;;;;;5071396;28;20533;-63
2021/10/08 10:15:25;;;;;;;21.75;13.63;;;15.40;99.90;;;;;;5070199;28;20024;-63
2021/10/08 10:17:51;;;;;;;22.45;14.40;;;15.40;99.90;;;;;;5070834;28;20020;-60
2021/10/08 10:20:17;;;;;;;22.13;13.30;;;15.50;99.90;;;;;;5070185;28;20510;-61
2021/10/08 10:22:43;;;;;;;19.92;12.93;;;;;;;;;;5071634;28;20037;-61
2021/10/08 10:25:13;;;;;;;23.88;12.55;;;;;;;;;;5070158;28;20055;-61
2021/10/08 10:27:40;;;;;;;20.33;12.32;;;;;;;;;;5071356;28;20025;-61
2021/10/08 10:30:06;;;;;;;21.25;13.98;;;;;;;;;;5069381;28;20032;-61
2021/10/08 10:32:33;;;;;;;20.55;12.65;;;;;;;;;;5068975;28;20025;-61
2021/10/08 10:35:03;;;;;;;21.73;12.90;;;;;;;;;;5071488;28;20095;-61
2021/10/08 10:37:37;;;;;;;21.20;12.30;;;;;;;;;;5072386;28;20041;-61
2021/10/08 10:40:15;;;;;;;21.42;12.35;;;;;;;;;;5070706;28;20021;-62
2021/10/08 10:42:41;;;;;;;20.63;13.25;;;;;;;;;;5071030;28;20025;-62
2021/10/08 10:45:11;;;;;;;20.85;12.50;;;;;;;;;;5070119;28;20028;-62
2021/10/08 10:47:38;;;;;;;19.63;13.20;;;;;;;;;;5070601;28;20021;-61
2021/10/08 10:50:38;;;;;;;26.23;14.10;;;;;;;;;;5070652;28;20025;-60
2021/10/08 10:53:05;;;;;;;22.42;12.65;;;15.60;99.90;;;;;;5070504;28;20044;-61
2021/10/08 10:55:34;;;;;;;20.70;11.88;;;;;;;;;;5070181;28;20014;-62
2021/10/08 10:58:08;;;;;;;19.35;12.38;;;;;;;;;;5070258;28;20155;-62
2021/10/08 11:00:39;;;;;;;19.67;13.05;;;;;;;;;;5070288;28;20371;-62
2021/10/08 11:03:08;;;;;;;19.80;13.93;;;;;;;;;;5070394;28;20111;-60
2021/10/08 11:05:37;;;;;;;20.95;13.65;;;;;;;;;;5070127;28;20047;-61
2021/10/08 11:08:03;;;;;;;19.35;14.25;;;;;;;;;;5070382;28;20025;-62
2021/10/08 11:10:29;;;;;;;19.55;15.43;;;;;;;;;;5070174;28;20100;-62
2021/10/08 11:13:15;;;;;;;20.90;15.02;;;;;;;;;;5070038;28;20036;-62
2021/10/08 11:15:44;;;;;;;18.52;14.35;;;;;;;;;;5070432;28;20033;-62
2021/10/08 11:18:10;;;;;;;19.77;15.95;;;;;;;;;;5070538;28;20500;-63
2021/10/08 11:20:46;;;;;;;21.88;17.73;;;;;;;;;;5070350;28;20066;-63
2021/10/08 11:23:32;;;;;;;19.42;15.48;;;;;;;;;;5070397;28;20020;-62
2021/10/08 11:26:00;;;;;;;19.38;15.63;;;;;;;;;;5070380;28;20032;-62
2021/10/08 11:28:31;;;;;;;21.95;15.77;;;;;;;;;;5070822;28;20467;-62
2021/10/08 11:30:57;;;;;;;20.58;15.75;;;;;;;;;;5070999;28;20084;-62
2021/10/08 11:33:40;;;;;;;18.92;15.13;;;;;;;;;;5070277;28;20433;-60
2021/10/08 11:36:17;;;;;;;19.30;15.27;;;;;;;;;;5068607;28;20024;-62
2021/10/08 11:38:43;;;;;;;25.60;16.20;;;;;;;;;;5070719;28;20025;-62
2021/10/08 11:41:20;;;;;;;18.60;14.88;;;;;;;;;;5070228;28;20095;-60
2021/10/08 11:43:49;;;;;;;19.15;15.23;;;;;;;;;;5069251;28;20029;-61
2021/10/08 11:46:30;;;;;;;19.25;15.18;;;;;;;;;;5073411;28;20499;-59
2021/10/08 11:49:15;;;;;;;18.35;15.38;;;;;;;;;;5073488;28;20512;-63
2021/10/08 11:51:41;;;;;;;21.05;16.58;;;;;;;;;;5072223;28;20050;-63
2021/10/08 11:54:07;;;;;;;18.05;15.38;;;;;;;;;;5074160;28;20032;-61
2021/10/08 11:56:33;;;;;;;20.02;15.50;;;;;;;;;;5074133;28;20020;-62
2021/10/08 11:58:59;;;;;;;17.98;14.65;;;;;;;;;;5072279;28;20017;-62
2021/10/08 12:01:26;;;;;;;18.60;15.30;;;;;;;;;;5073370;28;20370;-63
2021/10/08 12:03:52;;;;;;;19.70;15.02;;;;;;;;;;5073471;28;20051;-61
2021/10/08 12:06:22;;;;;;;18.63;15.30;;;;;;;;;;5072255;28;20040;-62
2021/10/08 12:08:48;;;;;;;19.10;15.40;;;;;;;;;;5072579;28;20031;-62
2021/10/08 12:11:19;;;;;;;19.80;16.10;;;;;;;;;;5073634;28;20025;-61
2021/10/08 12:13:48;;;;;;;20.05;15.45;;;;;;;;;;5074991;28;20012;-61
2021/10/08 12:19:44;;;;;;;21.73;16.30;;;28.30;95.40;;;;;;5109379;27;20316;-62
2021/10/08 12:22:23;;;;;;;18.48;15.63;;;28.50;95.10;;;;;;5108375;28;20031;-62
2021/10/08 12:24:51;;;;;;;18.35;16.35;;;28.40;94.90;;;;;;5109338;28;20022;-61
2021/10/08 12:27:17;;;;;;;18.73;15.60;;;28.60;95.00;;;;;;5109217;28;20024;-61
2021/10/08 12:29:45;;;;;;;18.20;14.98;;;28.90;95.30;;;;;;5109486;28;20026;-61
2021/10/08 12:32:12;;;;;;;;;;;29.00;94.80;;;;;;5109355;28;20058;-61
2021/10/08 12:34:40;;;;;;;18.98;15.20;;;28.90;94.20;;;;;;5108930;28;19976;-61
2021/10/08 12:37:16;;;;;;;18.33;15.02;;;29.60;94.20;;;;;;5108600;28;20433;-60
2021/10/08 12:39:58;;;;;;;18.27;15.10;;;29.20;93.80;;;;;;5107804;28;20395;-62
2021/10/08 12:42:27;;;;;;;19.65;15.18;;;;;;;;;;5108497;28;20367;-61
2021/10/08 12:44:57;;;;;;;17.67;14.65;;;;;;;;;;5106941;28;20028;-61
2021/10/08 12:49:59;;;;;;;18.95;14.35;;;;;;;;;;5108018;28;20028;-62
2021/10/08 12:52:31;;;;;;;18.83;14.20;;;;;;;;;;5108250;28;20031;-61
2021/10/08 12:55:10;;;;;;;19.55;15.25;;;29.20;94.10;;;;;;5108115;28;20024;-61
2021/10/08 12:57:55;;;;;;;18.23;14.63;;;28.80;94.10;;;;;;5108612;28;20475;-61
2021/10/08 13:00:33;;;;;;;17.95;14.88;;;28.10;95.00;;;;;;5108215;28;20024;-61
2021/10/08 13:02:59;;;;;;;18.45;14.57;;;29.40;94.50;;;;;;5108096;28;20024;-62
2021/10/08 13:08:12;;;;;;;17.75;14.10;;;29.00;93.20;;;;;;5065244;28;20060;-66
2021/10/08 13:10:57;;;;;;;17.63;13.35;;;29.80;93.70;;;;;;5065914;28;20112;-66
2021/10/08 13:14:13;;;;;;;20.15;13.90;;;29.60;93.50;;;;;;5066699;28;20020;-66
2021/10/08 13:16:36;;;;;;;18.88;14.02;;;29.70;93.60;;;;;;5053003;28;20025;-65
2021/10/08 13:19:57;;;;;;;18.48;14.10;;;30.30;93.10;;;;;;5066533;28;20036;-66
2021/10/08 13:22:34;;;;;;;16.83;13.27;;;30.70;92.80;;;;;;5043837;28;20124;-64
2021/10/08 13:25:00;;;;;;;18.70;14.30;;;30.60;92.40;;;;;;5066246;28;20029;-65
2021/10/08 13:27:46;;;;;;;17.95;14.68;;;31.90;92.00;;;;;;5066410;28;20271;-66
2021/10/08 13:30:12;;;;;;;17.02;14.18;;;32.70;91.20;;;;;;5050108;28;20086;-65
2021/10/08 13:32:40;;;;;;;18.05;14.50;;;32.40;90.40;;;;;;5052617;28;20052;-64
2021/10/08 13:35:18;;;;;;;18.25;15.43;;;32.10;90.00;;;;;;5051468;28;20024;-66
2021/10/08 13:38:02;;;;;;;17.63;14.32;;;31.70;90.00;;;;;;5053450;28;20025;-65
2021/10/08 13:40:45;;;;;;;18.13;14.32;;;31.20;89.20;;;;;;5052503;28;20041;-65
2021/10/08 13:43:55;;;;;;;;;;;;;;;;;;;;;
2021/10/08 13:47:01;;;;;;;17.13;13.88;;;30.80;89.10;;;;;;5009979;28;20080;-66
2021/10/08 13:49:38;;;;;;;16.77;13.45;;;30.50;89.90;;;;;;5049483;28;20040;-64
2021/10/08 13:58:49;;;;;;;;;;;;;;;;;;;;;
2021/10/08 14:01:28;;;;;;;17.08;12.70;;;;;;;;;;5052322;28;20016;-66
2021/10/08 14:04:01;;;;;;;16.42;13.90;;;;;;;;;;5050795;28;20049;-66
2021/10/08 14:12:07;;;;;;;16.55;13.02;;;30.40;90.00;;;;;;5052531;28;20416;-65
2021/10/08 14:14:48;;;;;;;17.58;13.23;;;29.20;90.50;;;;;;5052413;28;20033;-65
2021/10/08 14:18:13;;;;;;;;;;;;;;;;;;;;;
2021/10/08 14:20:57;;;;;;;17.05;13.20;;;;;;;;;;5050778;28;20396;-64
2021/10/08 14:30:36;;;;;;;;;;;;;;;;;;;;;
2021/10/08 14:33:22;;;;;;;18.85;13.27;;;;;;;;;;4961962;28;20038;-65
2021/10/08 14:39:24;;;;;;;16.00;13.45;;;;;;;;;;4987422;28;20034;-66
2021/10/08 14:45:05;;;;;;;17.85;13.77;;;;;;;;;;5040071;28;20037;-64
2021/10/08 14:51:31;;;;;;;18.27;13.23;;;;;;;;;;5012996;28;20041;-64
2021/10/08 15:01:21;;;;;;;17.20;12.85;;;;;;;;;;5013710;28;20041;-65
2021/10/08 15:06:41;;;;;;;17.00;13.35;;;;;;;;;;5039398;28;20077;-65
2021/10/08 15:12:45;;;;;;;17.20;14.00;;;;;;;;;;4999054;28;20169;-66